Swan Valley, Idaho
Current Conditions -  °F | °C
As of 3:56 AM on Friday 19 Dec 2014 (Local Time) from KDIJ Reporting Station
Light Snow Light Snow  
Wind Chill: -7°   Ceiling: 3100
Heat Index: -2°   Visibility: 9mi
Dew Point: -4°   Wind: 9mph
Humidity: 89%   Direction: 170°S
Pressure: 30.12"   Gusts: NA
Location:  43.46°N, 111.34°W
Report Text: KDIJ 191056Z AUTO 17008KT 9SM -SN FEW001 SCT020 BKN031 M02/M04 A3012 RMK AO2 T10221038 P0000 SLP201
Loading
Personal Weather Stations






























Interactive Weather Map New forecast layout! Learn more

10-Day Weather Forecast

Advertisements
Track Severe Weather on mobile